This is the latest recevied weather packets stored in our database for station/object EA1RCG-11. If no packets are shown the sender has not sent any weather packets the latest 10 day(s).
| Time | Temp. | Humidity | Pressure | Rain* | Wind** | Luminosity | Snow |
|---|---|---|---|---|---|---|---|
| 1777926876 | 13.89° C | 66% | 979.9 hPa | - | - | - | - |
| 1777925076 | 13.89° C | 66% | 979.6 hPa | - | - | - | - |
| 1777923276 | 14.44° C | 65% | 979.7 hPa | - | - | - | - |
| 1777921476 | 15° C | 64% | 979.4 hPa | - | - | - | - |
| 1777919676 | 15° C | 64% | 979.3 hPa | - | - | - | - |
| 1777917876 | 15° C | 64% | 979.5 hPa | - | - | - | - |
| 1777916076 | 15° C | 64% | 979.5 hPa | - | - | - | - |
| 1777914276 | 14.44° C | 65% | 979.1 hPa | - | - | - | - |
| 1777912475 | 14.44° C | 66% | 979.1 hPa | - | - | - | - |
| 1777910675 | 16.67° C | 64% | 978.2 hPa | - | - | - | - |
| 1777908875 | 19.44° C | 59% | 977.6 hPa | - | - | - | - |
| 1777907075 | 19.44° C | 59% | 977.7 hPa | - | - | - | - |
| 1777905275 | 20.56° C | 57% | 977.9 hPa | - | - | - | - |
| 1777903475 | 19.44° C | 60% | 977.9 hPa | - | - | - | - |
| 1777901675 | 20.56° C | 58% | 978 hPa | - | - | - | - |
| 1777899875 | 22.78° C | 54% | 978.1 hPa | - | - | - | - |
| 1777898075 | 21.67° C | 56% | 978.1 hPa | - | - | - | - |
| 1777896275 | 22.22° C | 55% | 978.3 hPa | - | - | - | - |
| 1777894474 | 22.22° C | 55% | 978.8 hPa | - | - | - | - |
| 1777892674 | 20° C | 58% | 978.8 hPa | - | - | - | - |
| 1777890874 | 24.44° C | 51% | 978.9 hPa | - | - | - | - |
| 1777889074 | 21.67° C | 54% | 978.9 hPa | - | - | - | - |
| 1777887274 | 19.44° C | 57% | 978.9 hPa | - | - | - | - |
| 1777885474 | 21.67° C | 53% | 978.9 hPa | - | - | - | - |
| 1777883674 | 17.22° C | 60% | 978.9 hPa | - | - | - | - |
* Rain since midnight (hover to see other rain measurements)
** Current wind speed in m/s (hover to see current wind gust speed)